sensor_id;sensor_type;location;lat;lon;timestamp;P1;durP1;ratioP1;P2;durP2;ratioP2
21621;SDS011;10973;46.706;12.340;2023-06-22T08:14:58;19.58;;;16.20;;
21621;SDS011;10973;46.706;12.340;2023-06-22T08:17:26;22.27;;;17.35;;
21621;SDS011;10973;46.706;12.340;2023-06-22T08:19:54;18.77;;;14.45;;
21621;SDS011;10973;46.706;12.340;2023-06-22T08:22:21;22.58;;;14.43;;
21621;SDS011;10973;46.706;12.340;2023-06-22T08:24:49;17.63;;;15.60;;
21621;SDS011;10973;46.706;12.340;2023-06-22T08:27:16;21.35;;;15.25;;
21621;SDS011;10973;46.706;12.340;2023-06-22T08:29:44;21.98;;;14.82;;
21621;SDS011;10973;46.706;12.340;2023-06-22T08:32:12;35.53;;;17.08;;
21621;SDS011;10973;46.706;12.340;2023-06-22T08:34:39;23.90;;;15.57;;
21621;SDS011;10973;46.706;12.340;2023-06-22T08:37:07;19.30;;;13.60;;
21621;SDS011;10973;46.706;12.340;2023-06-22T08:39:38;18.55;;;14.98;;
21621;SDS011;10973;46.706;12.340;2023-06-22T08:42:05;32.67;;;15.60;;
21621;SDS011;10973;46.706;12.340;2023-06-22T08:44:33;20.75;;;14.45;;
21621;SDS011;10973;46.706;12.340;2023-06-22T08:47:01;23.90;;;14.48;;
21621;SDS011;10973;46.706;12.340;2023-06-22T08:49:29;25.15;;;13.10;;
21621;SDS011;10973;46.706;12.340;2023-06-22T08:51:56;20.70;;;12.80;;
21621;SDS011;10973;46.706;12.340;2023-06-22T08:54:23;24.25;;;12.98;;
21621;SDS011;10973;46.706;12.340;2023-06-22T08:56:51;20.23;;;12.18;;
21621;SDS011;10973;46.706;12.340;2023-06-22T08:59:18;21.15;;;11.90;;
21621;SDS011;10973;46.706;12.340;2023-06-22T09:01:46;17.35;;;10.13;;
21621;SDS011;10973;46.706;12.340;2023-06-22T09:04:13;30.90;;;11.45;;
21621;SDS011;10973;46.706;12.340;2023-06-22T09:06:42;20.30;;;10.50;;
21621;SDS011;10973;46.706;12.340;2023-06-22T09:09:09;18.98;;;10.55;;
21621;SDS011;10973;46.706;12.340;2023-06-22T09:11:38;21.23;;;10.57;;
21621;SDS011;10973;46.706;12.340;2023-06-22T09:14:06;18.73;;;9.23;;
21621;SDS011;10973;46.706;12.340;2023-06-22T09:16:33;24.27;;;9.25;;
21621;SDS011;10973;46.706;12.340;2023-06-22T09:19:01;23.60;;;8.68;;
21621;SDS011;10973;46.706;12.340;2023-06-22T09:21:29;19.60;;;9.38;;
21621;SDS011;10973;46.706;12.340;2023-06-22T09:24:00;16.52;;;9.70;;
21621;SDS011;10973;46.706;12.340;2023-06-22T09:26:27;15.98;;;9.75;;
21621;SDS011;10973;46.706;12.340;2023-06-22T09:28:54;19.35;;;8.73;;
21621;SDS011;10973;46.706;12.340;2023-06-22T09:31:22;22.23;;;8.85;;
21621;SDS011;10973;46.706;12.340;2023-06-22T09:33:50;17.42;;;9.07;;
21621;SDS011;10973;46.706;12.340;2023-06-22T09:36:21;15.55;;;8.73;;
21621;SDS011;10973;46.706;12.340;2023-06-22T09:38:49;30.05;;;11.32;;
21621;SDS011;10973;46.706;12.340;2023-06-22T09:41:17;18.48;;;9.40;;
21621;SDS011;10973;46.706;12.340;2023-06-22T09:43:44;28.38;;;11.02;;
21621;SDS011;10973;46.706;12.340;2023-06-22T09:46:11;20.42;;;10.25;;
21621;SDS011;10973;46.706;12.340;2023-06-22T09:48:39;15.95;;;9.10;;
21621;SDS011;10973;46.706;12.340;2023-06-22T09:51:07;36.45;;;10.57;;
21621;SDS011;10973;46.706;12.340;2023-06-22T09:53:34;21.60;;;10.40;;
21621;SDS011;10973;46.706;12.340;2023-06-22T09:56:02;17.67;;;9.85;;
21621;SDS011;10973;46.706;12.340;2023-06-22T09:58:29;21.10;;;10.02;;
21621;SDS011;10973;46.706;12.340;2023-06-22T10:01:00;19.00;;;10.23;;
21621;SDS011;10973;46.706;12.340;2023-06-22T10:03:29;22.02;;;10.07;;
21621;SDS011;10973;46.706;12.340;2023-06-22T10:05:57;20.80;;;9.48;;
21621;SDS011;10973;46.706;12.340;2023-06-22T10:08:24;21.13;;;10.65;;
21621;SDS011;10973;46.706;12.340;2023-06-22T10:10:52;20.05;;;9.90;;
21621;SDS011;10973;46.706;12.340;2023-06-22T10:13:19;17.90;;;9.88;;
21621;SDS011;10973;46.706;12.340;2023-06-22T10:15:47;16.45;;;9.32;;
21621;SDS011;10973;46.706;12.340;2023-06-22T10:18:15;18.00;;;9.07;;
21621;SDS011;10973;46.706;12.340;2023-06-22T10:20:47;17.35;;;9.65;;
21621;SDS011;10973;46.706;12.340;2023-06-22T10:23:18;23.67;;;9.35;;
21621;SDS011;10973;46.706;12.340;2023-06-22T10:25:46;20.45;;;9.23;;
21621;SDS011;10973;46.706;12.340;2023-06-22T10:28:14;17.50;;;9.50;;
21621;SDS011;10973;46.706;12.340;2023-06-22T10:30:42;15.82;;;9.05;;
21621;SDS011;10973;46.706;12.340;2023-06-22T10:33:10;20.05;;;8.80;;
21621;SDS011;10973;46.706;12.340;2023-06-22T10:35:38;14.15;;;8.45;;
21621;SDS011;10973;46.706;12.340;2023-06-22T10:38:06;17.95;;;8.00;;
21621;SDS011;10973;46.706;12.340;2023-06-22T10:40:37;16.08;;;7.55;;
21621;SDS011;10973;46.706;12.340;2023-06-22T10:43:05;17.58;;;7.80;;
21621;SDS011;10973;46.706;12.340;2023-06-22T10:45:38;12.35;;;7.20;;
21621;SDS011;10973;46.706;12.340;2023-06-22T10:48:06;15.73;;;7.43;;
21621;SDS011;10973;46.706;12.340;2023-06-22T10:50:33;15.98;;;7.88;;
21621;SDS011;10973;46.706;12.340;2023-06-22T10:53:02;14.40;;;7.90;;
21621;SDS011;10973;46.706;12.340;2023-06-22T10:55:29;19.17;;;7.53;;
21621;SDS011;10973;46.706;12.340;2023-06-22T10:58:18;19.00;;;8.30;;
21621;SDS011;10973;46.706;12.340;2023-06-22T11:00:45;14.18;;;7.90;;
21621;SDS011;10973;46.706;12.340;2023-06-22T11:03:13;37.83;;;8.82;;
21621;SDS011;10973;46.706;12.340;2023-06-22T11:05:40;17.70;;;7.25;;
21621;SDS011;10973;46.706;12.340;2023-06-22T11:08:08;16.45;;;7.43;;
21621;SDS011;10973;46.706;12.340;2023-06-22T11:10:35;17.23;;;6.25;;
21621;SDS011;10973;46.706;12.340;2023-06-22T11:13:02;13.63;;;7.28;;
21621;SDS011;10973;46.706;12.340;2023-06-22T11:15:30;12.07;;;7.45;;
21621;SDS011;10973;46.706;12.340;2023-06-22T11:17:58;12.15;;;6.38;;
21621;SDS011;10973;46.706;12.340;2023-06-22T11:20:25;12.70;;;6.65;;
21621;SDS011;10973;46.706;12.340;2023-06-22T11:22:53;12.20;;;7.03;;
21621;SDS011;10973;46.706;12.340;2023-06-22T11:25:21;19.30;;;7.88;;
21621;SDS011;10973;46.706;12.340;2023-06-22T11:27:48;15.73;;;8.13;;
21621;SDS011;10973;46.706;12.340;2023-06-22T11:30:16;13.13;;;8.00;;
21621;SDS011;10973;46.706;12.340;2023-06-22T11:32:43;21.50;;;7.88;;
21621;SDS011;10973;46.706;12.340;2023-06-22T11:35:11;18.17;;;8.27;;
21621;SDS011;10973;46.706;12.340;2023-06-22T11:37:39;18.50;;;8.07;;
21621;SDS011;10973;46.706;12.340;2023-06-22T11:40:08;18.23;;;7.20;;
21621;SDS011;10973;46.706;12.340;2023-06-22T11:42:36;23.02;;;8.90;;
21621;SDS011;10973;46.706;12.340;2023-06-22T11:45:04;19.73;;;7.90;;
21621;SDS011;10973;46.706;12.340;2023-06-22T11:47:33;16.73;;;7.70;;
21621;SDS011;10973;46.706;12.340;2023-06-22T11:50:00;15.00;;;8.50;;
21621;SDS011;10973;46.706;12.340;2023-06-22T11:52:29;13.68;;;7.55;;
21621;SDS011;10973;46.706;12.340;2023-06-22T11:54:56;20.08;;;7.85;;
21621;SDS011;10973;46.706;12.340;2023-06-22T11:57:23;19.35;;;8.07;;
21621;SDS011;10973;46.706;12.340;2023-06-22T11:59:51;24.73;;;8.35;;
21621;SDS011;10973;46.706;12.340;2023-06-22T12:02:18;25.77;;;8.20;;
21621;SDS011;10973;46.706;12.340;2023-06-22T12:04:45;17.17;;;8.07;;
21621;SDS011;10973;46.706;12.340;2023-06-22T12:07:13;15.88;;;7.90;;
21621;SDS011;10973;46.706;12.340;2023-06-22T12:09:40;18.45;;;7.95;;
21621;SDS011;10973;46.706;12.340;2023-06-22T12:12:08;17.70;;;8.15;;
21621;SDS011;10973;46.706;12.340;2023-06-22T12:14:36;21.63;;;8.40;;
21621;SDS011;10973;46.706;12.340;2023-06-22T12:17:03;13.30;;;7.22;;
21621;SDS011;10973;46.706;12.340;2023-06-22T12:19:31;18.98;;;8.45;;
21621;SDS011;10973;46.706;12.340;2023-06-22T12:21:58;15.30;;;7.53;;
21621;SDS011;10973;46.706;12.340;2023-06-22T12:24:26;18.90;;;8.38;;
21621;SDS011;10973;46.706;12.340;2023-06-22T12:26:53;19.92;;;8.75;;
21621;SDS011;10973;46.706;12.340;2023-06-22T12:29:22;22.85;;;9.18;;
21621;SDS011;10973;46.706;12.340;2023-06-22T12:31:49;17.35;;;8.27;;
21621;SDS011;10973;46.706;12.340;2023-06-22T12:34:16;20.35;;;8.82;;
21621;SDS011;10973;46.706;12.340;2023-06-22T12:36:44;17.80;;;8.48;;
21621;SDS011;10973;46.706;12.340;2023-06-22T12:39:11;22.20;;;8.20;;
21621;SDS011;10973;46.706;12.340;2023-06-22T12:41:38;17.77;;;8.38;;
21621;SDS011;10973;46.706;12.340;2023-06-22T12:44:06;19.63;;;8.88;;
21621;SDS011;10973;46.706;12.340;2023-06-22T12:46:34;20.02;;;9.73;;
21621;SDS011;10973;46.706;12.340;2023-06-22T12:49:01;17.92;;;8.65;;
21621;SDS011;10973;46.706;12.340;2023-06-22T12:51:29;18.30;;;8.68;;
21621;SDS011;10973;46.706;12.340;2023-06-22T12:53:57;15.95;;;8.15;;
21621;SDS011;10973;46.706;12.340;2023-06-22T12:56:24;20.58;;;8.07;;
21621;SDS011;10973;46.706;12.340;2023-06-22T12:58:52;18.30;;;9.07;;
21621;SDS011;10973;46.706;12.340;2023-06-22T13:01:19;26.20;;;9.65;;
21621;SDS011;10973;46.706;12.340;2023-06-22T13:03:47;19.42;;;9.52;;
21621;SDS011;10973;46.706;12.340;2023-06-22T13:06:15;16.15;;;8.15;;
21621;SDS011;10973;46.706;12.340;2023-06-22T13:08:42;21.38;;;8.98;;
21621;SDS011;10973;46.706;12.340;2023-06-22T13:11:29;22.45;;;9.18;;
21621;SDS011;10973;46.706;12.340;2023-06-22T13:13:57;20.17;;;8.90;;
21621;SDS011;10973;46.706;12.340;2023-06-22T13:16:24;21.42;;;8.60;;
21621;SDS011;10973;46.706;12.340;2023-06-22T13:18:52;18.83;;;9.68;;
21621;SDS011;10973;46.706;12.340;2023-06-22T13:21:19;19.88;;;9.57;;
21621;SDS011;10973;46.706;12.340;2023-06-22T13:23:46;18.58;;;9.13;;
21621;SDS011;10973;46.706;12.340;2023-06-22T13:26:14;21.35;;;9.52;;
21621;SDS011;10973;46.706;12.340;2023-06-22T13:28:41;23.23;;;9.57;;
21621;SDS011;10973;46.706;12.340;2023-06-22T13:31:09;18.27;;;8.68;;
21621;SDS011;10973;46.706;12.340;2023-06-22T13:33:37;13.73;;;8.70;;
21621;SDS011;10973;46.706;12.340;2023-06-22T13:36:05;17.25;;;9.95;;
21621;SDS011;10973;46.706;12.340;2023-06-22T13:38:33;16.92;;;9.32;;
21621;SDS011;10973;46.706;12.340;2023-06-22T13:41:02;21.38;;;10.13;;
21621;SDS011;10973;46.706;12.340;2023-06-22T13:43:30;17.95;;;9.55;;
21621;SDS011;10973;46.706;12.340;2023-06-22T13:45:58;15.90;;;9.60;;
21621;SDS011;10973;46.706;12.340;2023-06-22T13:48:25;16.40;;;9.05;;
21621;SDS011;10973;46.706;12.340;2023-06-22T13:50:53;20.40;;;10.20;;
21621;SDS011;10973;46.706;12.340;2023-06-22T13:53:20;21.73;;;9.93;;
21621;SDS011;10973;46.706;12.340;2023-06-22T13:55:48;19.27;;;10.00;;
21621;SDS011;10973;46.706;12.340;2023-06-22T13:58:15;25.08;;;10.02;;
21621;SDS011;10973;46.706;12.340;2023-06-22T14:00:43;19.92;;;9.93;;
21621;SDS011;10973;46.706;12.340;2023-06-22T14:03:11;19.10;;;9.65;;
21621;SDS011;10973;46.706;12.340;2023-06-22T14:05:42;20.02;;;10.55;;
21621;SDS011;10973;46.706;12.340;2023-06-22T14:08:14;21.08;;;10.38;;
21621;SDS011;10973;46.706;12.340;2023-06-22T14:11:05;20.48;;;10.65;;
21621;SDS011;10973;46.706;12.340;2023-06-22T14:13:33;17.05;;;9.15;;
21621;SDS011;10973;46.706;12.340;2023-06-22T14:16:01;16.77;;;9.95;;
21621;SDS011;10973;46.706;12.340;2023-06-22T14:18:29;18.63;;;9.43;;
21621;SDS011;10973;46.706;12.340;2023-06-22T14:20:57;24.02;;;10.00;;
21621;SDS011;10973;46.706;12.340;2023-06-22T14:23:24;21.05;;;10.45;;
21621;SDS011;10973;46.706;12.340;2023-06-22T14:25:54;21.02;;;10.35;;
21621;SDS011;10973;46.706;12.340;2023-06-22T14:28:21;26.83;;;11.15;;
21621;SDS011;10973;46.706;12.340;2023-06-22T14:30:51;19.23;;;9.57;;
21621;SDS011;10973;46.706;12.340;2023-06-22T14:33:18;24.10;;;10.65;;
21621;SDS011;10973;46.706;12.340;2023-06-22T14:35:49;23.20;;;9.60;;
21621;SDS011;10973;46.706;12.340;2023-06-22T14:38:18;22.52;;;9.63;;
21621;SDS011;10973;46.706;12.340;2023-06-22T14:40:48;20.15;;;10.05;;
21621;SDS011;10973;46.706;12.340;2023-06-22T14:43:35;22.95;;;10.02;;
21621;SDS011;10973;46.706;12.340;2023-06-22T14:46:03;20.60;;;10.15;;
21621;SDS011;10973;46.706;12.340;2023-06-22T14:48:30;17.60;;;9.93;;
21621;SDS011;10973;46.706;12.340;2023-06-22T14:50:57;26.50;;;10.55;;
21621;SDS011;10973;46.706;12.340;2023-06-22T14:53:25;25.52;;;10.63;;
21621;SDS011;10973;46.706;12.340;2023-06-22T14:55:52;24.38;;;10.25;;
21621;SDS011;10973;46.706;12.340;2023-06-22T14:58:20;26.73;;;10.43;;
21621;SDS011;10973;46.706;12.340;2023-06-22T15:00:48;26.33;;;10.52;;
21621;SDS011;10973;46.706;12.340;2023-06-22T15:03:15;17.52;;;9.50;;
21621;SDS011;10973;46.706;12.340;2023-06-22T15:05:43;16.17;;;9.02;;
21621;SDS011;10973;46.706;12.340;2023-06-22T15:08:12;29.77;;;10.40;;
21621;SDS011;10973;46.706;12.340;2023-06-22T15:10:40;21.27;;;9.80;;
21621;SDS011;10973;46.706;12.340;2023-06-22T15:13:07;19.00;;;10.07;;
21621;SDS011;10973;46.706;12.340;2023-06-22T15:15:35;18.88;;;9.80;;
21621;SDS011;10973;46.706;12.340;2023-06-22T15:18:03;21.08;;;10.00;;
21621;SDS011;10973;46.706;12.340;2023-06-22T15:20:31;21.73;;;9.88;;
21621;SDS011;10973;46.706;12.340;2023-06-22T15:22:58;37.38;;;11.70;;
21621;SDS011;10973;46.706;12.340;2023-06-22T15:25:26;26.52;;;10.20;;
21621;SDS011;10973;46.706;12.340;2023-06-22T15:27:53;25.75;;;10.98;;
21621;SDS011;10973;46.706;12.340;2023-06-22T15:30:20;22.58;;;10.50;;
21621;SDS011;10973;46.706;12.340;2023-06-22T15:32:48;24.40;;;9.73;;
21621;SDS011;10973;46.706;12.340;2023-06-22T15:35:16;24.85;;;10.07;;
21621;SDS011;10973;46.706;12.340;2023-06-22T15:37:43;30.73;;;9.30;;
21621;SDS011;10973;46.706;12.340;2023-06-22T15:40:12;23.50;;;10.57;;
21621;SDS011;10973;46.706;12.340;2023-06-22T15:42:39;26.42;;;9.10;;
21621;SDS011;10973;46.706;12.340;2023-06-22T15:45:07;24.55;;;10.20;;
21621;SDS011;10973;46.706;12.340;2023-06-22T15:47:37;28.30;;;11.27;;
21621;SDS011;10973;46.706;12.340;2023-06-22T15:50:05;27.08;;;10.80;;
21621;SDS011;10973;46.706;12.340;2023-06-22T15:52:33;29.55;;;10.57;;
21621;SDS011;10973;46.706;12.340;2023-06-22T15:55:00;30.08;;;11.40;;
21621;SDS011;10973;46.706;12.340;2023-06-22T15:57:28;26.27;;;11.75;;
21621;SDS011;10973;46.706;12.340;2023-06-22T15:59:59;28.58;;;11.32;;
21621;SDS011;10973;46.706;12.340;2023-06-22T16:02:27;27.17;;;11.15;;
21621;SDS011;10973;46.706;12.340;2023-06-22T16:04:55;20.30;;;10.60;;
21621;SDS011;10973;46.706;12.340;2023-06-22T16:07:22;33.28;;;12.38;;
21621;SDS011;10973;46.706;12.340;2023-06-22T16:09:50;28.52;;;11.05;;
21621;SDS011;10973;46.706;12.340;2023-06-22T16:12:18;21.85;;;11.98;;
21621;SDS011;10973;46.706;12.340;2023-06-22T16:14:48;23.65;;;11.75;;
21621;SDS011;10973;46.706;12.340;2023-06-22T16:17:16;27.63;;;11.80;;
21621;SDS011;10973;46.706;12.340;2023-06-22T16:19:44;24.83;;;12.40;;
21621;SDS011;10973;46.706;12.340;2023-06-22T16:22:11;28.30;;;13.60;;
21621;SDS011;10973;46.706;12.340;2023-06-22T16:24:39;20.17;;;11.30;;
21621;SDS011;10973;46.706;12.340;2023-06-22T16:27:06;21.65;;;11.10;;
21621;SDS011;10973;46.706;12.340;2023-06-22T16:29:34;20.15;;;10.77;;
21621;SDS011;10973;46.706;12.340;2023-06-22T16:32:01;22.88;;;12.63;;
21621;SDS011;10973;46.706;12.340;2023-06-22T16:34:29;28.67;;;11.15;;
21621;SDS011;10973;46.706;12.340;2023-06-22T16:36:56;23.55;;;11.23;;
21621;SDS011;10973;46.706;12.340;2023-06-22T16:39:24;25.10;;;11.23;;
21621;SDS011;10973;46.706;12.340;2023-06-22T16:41:51;22.50;;;11.02;;
21621;SDS011;10973;46.706;12.340;2023-06-22T16:44:19;19.63;;;11.02;;
21621;SDS011;10973;46.706;12.340;2023-06-22T16:46:46;17.02;;;11.32;;
21621;SDS011;10973;46.706;12.340;2023-06-22T16:49:14;25.00;;;11.65;;
21621;SDS011;10973;46.706;12.340;2023-06-22T16:51:41;26.77;;;11.85;;
21621;SDS011;10973;46.706;12.340;2023-06-22T16:54:09;24.00;;;12.05;;
21621;SDS011;10973;46.706;12.340;2023-06-22T16:56:38;22.15;;;11.00;;
21621;SDS011;10973;46.706;12.340;2023-06-22T16:59:06;22.63;;;11.63;;
21621;SDS011;10973;46.706;12.340;2023-06-22T17:01:34;21.02;;;11.38;;
21621;SDS011;10973;46.706;12.340;2023-06-22T17:04:08;21.98;;;11.43;;
21621;SDS011;10973;46.706;12.340;2023-06-22T17:06:37;23.40;;;12.35;;
21621;SDS011;10973;46.706;12.340;2023-06-22T17:09:11;20.50;;;11.98;;
21621;SDS011;10973;46.706;12.340;2023-06-22T17:11:41;19.23;;;11.65;;
21621;SDS011;10973;46.706;12.340;2023-06-22T17:14:09;22.83;;;12.70;;
21621;SDS011;10973;46.706;12.340;2023-06-22T17:16:38;20.77;;;11.93;;
21621;SDS011;10973;46.706;12.340;2023-06-22T17:19:11;20.25;;;11.68;;
21621;SDS011;10973;46.706;12.340;2023-06-22T17:21:39;20.77;;;12.02;;
21621;SDS011;10973;46.706;12.340;2023-06-22T17:24:08;24.90;;;12.68;;
21621;SDS011;10973;46.706;12.340;2023-06-22T17:26:39;17.92;;;11.25;;
21621;SDS011;10973;46.706;12.340;2023-06-22T17:29:08;20.23;;;12.85;;
21621;SDS011;10973;46.706;12.340;2023-06-22T17:31:38;21.13;;;11.68;;
21621;SDS011;10973;46.706;12.340;2023-06-22T17:34:10;19.13;;;11.90;;
21621;SDS011;10973;46.706;12.340;2023-06-22T17:36:49;30.40;;;13.25;;
21621;SDS011;10973;46.706;12.340;2023-06-22T17:39:19;18.13;;;12.18;;
21621;SDS011;10973;46.706;12.340;2023-06-22T17:41:49;22.50;;;12.55;;
21621;SDS011;10973;46.706;12.340;2023-06-22T17:46:53;23.13;;;12.88;;
21621;SDS011;10973;46.706;12.340;2023-06-22T17:49:26;20.17;;;11.85;;
21621;SDS011;10973;46.706;12.340;2023-06-22T17:51:57;16.92;;;12.00;;
21621;SDS011;10973;46.706;12.340;2023-06-22T17:54:31;23.52;;;11.90;;
21621;SDS011;10973;46.706;12.340;2023-06-22T17:57:13;22.02;;;12.70;;
21621;SDS011;10973;46.706;12.340;2023-06-22T17:59:46;25.40;;;12.32;;
21621;SDS011;10973;46.706;12.340;2023-06-22T18:02:21;18.60;;;12.35;;
21621;SDS011;10973;46.706;12.340;2023-06-22T18:04:56;18.48;;;12.60;;
21621;SDS011;10973;46.706;12.340;2023-06-22T18:07:24;23.38;;;12.40;;
21621;SDS011;10973;46.706;12.340;2023-06-22T18:09:55;23.42;;;12.18;;
21621;SDS011;10973;46.706;12.340;2023-06-22T18:12:25;19.05;;;12.32;;
21621;SDS011;10973;46.706;12.340;2023-06-22T18:14:54;24.08;;;13.05;;
21621;SDS011;10973;46.706;12.340;2023-06-22T18:17:23;18.92;;;12.00;;
21621;SDS011;10973;46.706;12.340;2023-06-22T18:19:52;21.90;;;12.98;;
21621;SDS011;10973;46.706;12.340;2023-06-22T18:22:24;21.95;;;12.80;;
21621;SDS011;10973;46.706;12.340;2023-06-22T18:24:52;23.48;;;13.45;;
21621;SDS011;10973;46.706;12.340;2023-06-22T18:27:22;25.05;;;13.13;;
21621;SDS011;10973;46.706;12.340;2023-06-22T18:29:51;20.23;;;12.93;;
21621;SDS011;10973;46.706;12.340;2023-06-22T18:32:22;20.77;;;12.40;;
21621;SDS011;10973;46.706;12.340;2023-06-22T18:34:50;19.13;;;12.60;;
21621;SDS011;10973;46.706;12.340;2023-06-22T18:37:18;22.15;;;13.40;;
21621;SDS011;10973;46.706;12.340;2023-06-22T18:39:49;22.60;;;13.23;;
21621;SDS011;10973;46.706;12.340;2023-06-22T18:42:20;23.77;;;13.82;;
21621;SDS011;10973;46.706;12.340;2023-06-22T18:44:52;17.50;;;13.05;;
21621;SDS011;10973;46.706;12.340;2023-06-22T18:47:27;23.58;;;13.52;;
21621;SDS011;10973;46.706;12.340;2023-06-22T18:50:04;20.08;;;14.13;;
21621;SDS011;10973;46.706;12.340;2023-06-22T18:52:35;18.23;;;12.95;;
21621;SDS011;10973;46.706;12.340;2023-06-22T18:55:03;22.27;;;13.77;;
21621;SDS011;10973;46.706;12.340;2023-06-22T18:57:38;21.73;;;14.27;;
21621;SDS011;10973;46.706;12.340;2023-06-22T19:00:06;20.55;;;13.45;;
21621;SDS011;10973;46.706;12.340;2023-06-22T19:02:46;19.50;;;14.82;;
21621;SDS011;10973;46.706;12.340;2023-06-22T19:08:09;21.05;;;14.82;;
21621;SDS011;10973;46.706;12.340;2023-06-22T19:10:40;24.13;;;15.23;;
21621;SDS011;10973;46.706;12.340;2023-06-22T19:15:43;17.80;;;14.45;;
21621;SDS011;10973;46.706;12.340;2023-06-22T19:21:10;17.73;;;14.88;;
21621;SDS011;10973;46.706;12.340;2023-06-22T19:23:46;28.23;;;15.15;;
21621;SDS011;10973;46.706;12.340;2023-06-22T19:26:14;22.90;;;15.05;;
21621;SDS011;10973;46.706;12.340;2023-06-22T19:28:49;23.23;;;14.68;;
21621;SDS011;10973;46.706;12.340;2023-06-22T19:31:21;25.73;;;15.70;;
21621;SDS011;10973;46.706;12.340;2023-06-22T19:34:01;30.85;;;16.25;;
21621;SDS011;10973;46.706;12.340;2023-06-22T19:36:32;19.63;;;15.65;;
21621;SDS011;10973;46.706;12.340;2023-06-22T19:39:01;21.70;;;15.40;;
21621;SDS011;10973;46.706;12.340;2023-06-22T19:41:30;25.73;;;16.10;;
21621;SDS011;10973;46.706;12.340;2023-06-22T19:43:58;19.33;;;14.88;;
21621;SDS011;10973;46.706;12.340;2023-06-22T19:46:27;28.80;;;16.15;;
21621;SDS011;10973;46.706;12.340;2023-06-22T19:48:56;22.17;;;14.63;;
21621;SDS011;10973;46.706;12.340;2023-06-22T19:51:34;24.75;;;16.80;;
21621;SDS011;10973;46.706;12.340;2023-06-22T19:54:08;25.30;;;15.80;;
21621;SDS011;10973;46.706;12.340;2023-06-22T19:56:36;21.75;;;16.85;;
21621;SDS011;10973;46.706;12.340;2023-06-22T20:01:39;22.70;;;17.02;;
21621;SDS011;10973;46.706;12.340;2023-06-22T20:04:07;24.80;;;16.38;;
21621;SDS011;10973;46.706;12.340;2023-06-22T20:06:36;20.13;;;15.88;;
21621;SDS011;10973;46.706;12.340;2023-06-22T20:09:05;22.65;;;16.60;;
21621;SDS011;10973;46.706;12.340;2023-06-22T20:11:33;19.63;;;15.95;;
21621;SDS011;10973;46.706;12.340;2023-06-22T20:14:02;24.13;;;17.13;;
21621;SDS011;10973;46.706;12.340;2023-06-22T20:16:30;27.23;;;17.40;;
21621;SDS011;10973;46.706;12.340;2023-06-22T20:21:38;23.65;;;18.38;;
21621;SDS011;10973;46.706;12.340;2023-06-22T20:24:08;25.13;;;17.73;;
21621;SDS011;10973;46.706;12.340;2023-06-22T20:26:40;23.10;;;17.08;;
21621;SDS011;10973;46.706;12.340;2023-06-22T20:34:40;19.67;;;17.77;;
21621;SDS011;10973;46.706;12.340;2023-06-22T20:37:13;24.30;;;17.65;;
21621;SDS011;10973;46.706;12.340;2023-06-22T20:39:43;21.77;;;18.15;;
21621;SDS011;10973;46.706;12.340;2023-06-22T20:42:14;23.98;;;18.38;;
21621;SDS011;10973;46.706;12.340;2023-06-22T20:44:42;21.58;;;18.55;;
21621;SDS011;10973;46.706;12.340;2023-06-22T20:47:09;22.50;;;18.60;;
21621;SDS011;10973;46.706;12.340;2023-06-22T20:49:37;25.38;;;18.83;;
21621;SDS011;10973;46.706;12.340;2023-06-22T20:52:04;23.98;;;19.02;;
21621;SDS011;10973;46.706;12.340;2023-06-22T20:54:33;22.27;;;19.80;;
21621;SDS011;10973;46.706;12.340;2023-06-22T20:57:01;26.13;;;20.67;;
21621;SDS011;10973;46.706;12.340;2023-06-22T20:59:28;25.35;;;20.27;;
21621;SDS011;10973;46.706;12.340;2023-06-22T21:01:56;21.75;;;19.42;;
21621;SDS011;10973;46.706;12.340;2023-06-22T21:04:24;24.08;;;20.25;;
21621;SDS011;10973;46.706;12.340;2023-06-22T21:06:52;23.23;;;20.77;;
21621;SDS011;10973;46.706;12.340;2023-06-22T21:09:19;25.58;;;21.13;;
21621;SDS011;10973;46.706;12.340;2023-06-22T21:11:46;25.20;;;21.88;;
21621;SDS011;10973;46.706;12.340;2023-06-22T21:14:14;28.77;;;22.05;;
21621;SDS011;10973;46.706;12.340;2023-06-22T21:16:46;27.52;;;22.30;;
21621;SDS011;10973;46.706;12.340;2023-06-22T21:19:14;27.20;;;22.30;;
21621;SDS011;10973;46.706;12.340;2023-06-22T21:21:41;31.15;;;22.30;;
21621;SDS011;10973;46.706;12.340;2023-06-22T21:24:09;26.27;;;22.38;;
21621;SDS011;10973;46.706;12.340;2023-06-22T21:26:40;25.25;;;22.05;;
21621;SDS011;10973;46.706;12.340;2023-06-22T21:29:08;27.83;;;23.80;;
21621;SDS011;10973;46.706;12.340;2023-06-22T21:31:35;24.63;;;21.75;;
21621;SDS011;10973;46.706;12.340;2023-06-22T21:34:02;25.27;;;22.58;;
21621;SDS011;10973;46.706;12.340;2023-06-22T21:36:30;24.75;;;22.00;;
21621;SDS011;10973;46.706;12.340;2023-06-22T21:38:57;27.15;;;21.92;;
21621;SDS011;10973;46.706;12.340;2023-06-22T21:41:24;25.17;;;22.35;;
21621;SDS011;10973;46.706;12.340;2023-06-22T21:43:52;27.50;;;21.75;;
21621;SDS011;10973;46.706;12.340;2023-06-22T21:46:19;24.30;;;21.80;;
21621;SDS011;10973;46.706;12.340;2023-06-22T21:48:48;31.85;;;22.55;;
21621;SDS011;10973;46.706;12.340;2023-06-22T21:51:15;24.70;;;22.27;;
21621;SDS011;10973;46.706;12.340;2023-06-22T21:53:43;25.65;;;22.40;;
21621;SDS011;10973;46.706;12.340;2023-06-22T21:56:10;28.52;;;23.30;;
21621;SDS011;10973;46.706;12.340;2023-06-22T21:58:38;27.83;;;24.63;;
21621;SDS011;10973;46.706;12.340;2023-06-22T22:01:05;26.85;;;23.92;;
21621;SDS011;10973;46.706;12.340;2023-06-22T22:03:32;27.95;;;24.77;;
21621;SDS011;10973;46.706;12.340;2023-06-22T22:06:00;29.85;;;24.85;;
21621;SDS011;10973;46.706;12.340;2023-06-22T22:08:27;30.42;;;24.58;;
21621;SDS011;10973;46.706;12.340;2023-06-22T22:10:55;26.90;;;24.00;;
21621;SDS011;10973;46.706;12.340;2023-06-22T22:13:22;28.17;;;25.05;;
21621;SDS011;10973;46.706;12.340;2023-06-22T22:15:50;27.60;;;23.20;;
21621;SDS011;10973;46.706;12.340;2023-06-22T22:18:17;28.00;;;24.52;;
21621;SDS011;10973;46.706;12.340;2023-06-22T22:20:45;26.95;;;23.98;;
21621;SDS011;10973;46.706;12.340;2023-06-22T22:23:12;28.08;;;24.23;;
21621;SDS011;10973;46.706;12.340;2023-06-22T22:25:39;25.95;;;22.45;;
21621;SDS011;10973;46.706;12.340;2023-06-22T22:28:07;28.73;;;24.30;;
21621;SDS011;10973;46.706;12.340;2023-06-22T22:30:34;27.35;;;24.85;;
21621;SDS011;10973;46.706;12.340;2023-06-22T22:33:02;27.15;;;24.42;;
21621;SDS011;10973;46.706;12.340;2023-06-22T22:35:29;26.75;;;24.00;;
21621;SDS011;10973;46.706;12.340;2023-06-22T22:37:57;28.38;;;24.25;;
21621;SDS011;10973;46.706;12.340;2023-06-22T22:40:25;29.60;;;25.70;;
21621;SDS011;10973;46.706;12.340;2023-06-22T22:42:52;26.30;;;23.63;;
21621;SDS011;10973;46.706;12.340;2023-06-22T22:45:20;27.67;;;23.25;;
21621;SDS011;10973;46.706;12.340;2023-06-22T22:47:47;31.73;;;23.13;;
21621;SDS011;10973;46.706;12.340;2023-06-22T22:50:15;30.40;;;24.20;;
21621;SDS011;10973;46.706;12.340;2023-06-22T22:52:42;27.40;;;24.52;;
21621;SDS011;10973;46.706;12.340;2023-06-22T22:55:09;31.13;;;24.27;;
21621;SDS011;10973;46.706;12.340;2023-06-22T22:57:37;29.88;;;25.00;;